sensor_id;sensor_type;location;lat;lon;timestamp;P1;durP1;ratioP1;P2;durP2;ratioP2
20381;SDS011;10350;51.280;12.400;2023-08-07T03:58:10;50.55;;;47.85;;
20381;SDS011;10350;51.280;12.400;2023-08-07T04:03:42;54.33;;;51.42;;
20381;SDS011;10350;51.280;12.400;2023-08-07T04:09:16;51.63;;;48.92;;
20381;SDS011;10350;51.280;12.400;2023-08-07T04:15:12;53.35;;;50.50;;
20381;SDS011;10350;51.280;12.400;2023-08-07T04:17:58;53.20;;;50.38;;
20381;SDS011;10350;51.280;12.400;2023-08-07T04:33:11;54.88;;;51.97;;
20381;SDS011;10350;51.280;12.400;2023-08-07T04:42:32;53.90;;;50.85;;
20381;SDS011;10350;51.280;12.400;2023-08-07T04:44:58;54.85;;;51.97;;
20381;SDS011;10350;51.280;12.400;2023-08-07T04:47:24;55.20;;;52.30;;
20381;SDS011;10350;51.280;12.400;2023-08-07T04:49:57;54.40;;;51.55;;
20381;SDS011;10350;51.280;12.400;2023-08-07T04:52:23;57.15;;;54.10;;
20381;SDS011;10350;51.280;12.400;2023-08-07T04:54:49;52.88;;;50.08;;
20381;SDS011;10350;51.280;12.400;2023-08-07T04:57:15;54.35;;;51.47;;
20381;SDS011;10350;51.280;12.400;2023-08-07T04:59:47;52.42;;;49.72;;
20381;SDS011;10350;51.280;12.400;2023-08-07T05:02:15;56.45;;;53.45;;
20381;SDS011;10350;51.280;12.400;2023-08-07T05:04:41;56.03;;;53.10;;
20381;SDS011;10350;51.280;12.400;2023-08-07T05:07:10;56.50;;;53.53;;
20381;SDS011;10350;51.280;12.400;2023-08-07T05:09:40;56.55;;;53.60;;
20381;SDS011;10350;51.280;12.400;2023-08-07T05:12:06;59.42;;;55.78;;
20381;SDS011;10350;51.280;12.400;2023-08-07T05:14:32;58.75;;;55.65;;
20381;SDS011;10350;51.280;12.400;2023-08-07T05:16:58;58.10;;;55.05;;
20381;SDS011;10350;51.280;12.400;2023-08-07T05:19:27;58.20;;;55.15;;
20381;SDS011;10350;51.280;12.400;2023-08-07T05:21:52;58.13;;;55.03;;
20381;SDS011;10350;51.280;12.400;2023-08-07T05:24:18;57.55;;;54.50;;
20381;SDS011;10350;51.280;12.400;2023-08-07T05:26:44;57.92;;;54.88;;
20381;SDS011;10350;51.280;12.400;2023-08-07T05:29:11;56.28;;;52.95;;
20381;SDS011;10350;51.280;12.400;2023-08-07T05:31:37;53.92;;;51.10;;
20381;SDS011;10350;51.280;12.400;2023-08-07T05:34:03;55.92;;;53.03;;
20381;SDS011;10350;51.280;12.400;2023-08-07T05:36:29;53.72;;;50.92;;
20381;SDS011;10350;51.280;12.400;2023-08-07T05:38:56;53.08;;;50.30;;
20381;SDS011;10350;51.280;12.400;2023-08-07T05:44:42;52.55;;;49.80;;
20381;SDS011;10350;51.280;12.400;2023-08-07T05:47:12;55.70;;;52.78;;
20381;SDS011;10350;51.280;12.400;2023-08-07T05:49:55;55.15;;;52.17;;
20381;SDS011;10350;51.280;12.400;2023-08-07T05:55:43;54.58;;;51.70;;
20381;SDS011;10350;51.280;12.400;2023-08-07T05:58:12;56.25;;;53.28;;
20381;SDS011;10350;51.280;12.400;2023-08-07T06:00:56;57.88;;;54.75;;
20381;SDS011;10350;51.280;12.400;2023-08-07T06:03:22;59.28;;;55.42;;
20381;SDS011;10350;51.280;12.400;2023-08-07T06:05:48;55.65;;;52.75;;
20381;SDS011;10350;51.280;12.400;2023-08-07T06:08:17;53.53;;;50.67;;
20381;SDS011;10350;51.280;12.400;2023-08-07T06:10:43;51.30;;;48.65;;
20381;SDS011;10350;51.280;12.400;2023-08-07T06:13:09;52.88;;;50.08;;
20381;SDS011;10350;51.280;12.400;2023-08-07T06:15:35;50.08;;;47.35;;
20381;SDS011;10350;51.280;12.400;2023-08-07T06:18:04;49.28;;;46.67;;
20381;SDS011;10350;51.280;12.400;2023-08-07T06:20:30;48.63;;;46.08;;
20381;SDS011;10350;51.280;12.400;2023-08-07T06:22:56;47.92;;;45.42;;
20381;SDS011;10350;51.280;12.400;2023-08-07T06:25:22;50.45;;;47.50;;
20381;SDS011;10350;51.280;12.400;2023-08-07T06:27:48;49.95;;;47.30;;
20381;SDS011;10350;51.280;12.400;2023-08-07T06:30:13;50.17;;;47.30;;
20381;SDS011;10350;51.280;12.400;2023-08-07T06:32:40;51.85;;;49.08;;
20381;SDS011;10350;51.280;12.400;2023-08-07T06:35:06;54.38;;;51.42;;
20381;SDS011;10350;51.280;12.400;2023-08-07T06:37:32;52.53;;;49.78;;
20381;SDS011;10350;51.280;12.400;2023-08-07T06:39:58;53.00;;;50.20;;
20381;SDS011;10350;51.280;12.400;2023-08-07T06:42:24;52.38;;;49.63;;
20381;SDS011;10350;51.280;12.400;2023-08-07T06:44:50;52.67;;;49.92;;
20381;SDS011;10350;51.280;12.400;2023-08-07T06:50:19;49.60;;;47.03;;
20381;SDS011;10350;51.280;12.400;2023-08-07T06:52:45;47.80;;;45.25;;
20381;SDS011;10350;51.280;12.400;2023-08-07T06:55:11;47.47;;;45.00;;
20381;SDS011;10350;51.280;12.400;2023-08-07T06:57:37;47.85;;;45.38;;
20381;SDS011;10350;51.280;12.400;2023-08-07T07:00:04;45.15;;;42.80;;
20381;SDS011;10350;51.280;12.400;2023-08-07T07:02:31;43.30;;;41.08;;
20381;SDS011;10350;51.280;12.400;2023-08-07T07:10:15;40.53;;;38.42;;
20381;SDS011;10350;51.280;12.400;2023-08-07T07:12:42;39.45;;;37.22;;
20381;SDS011;10350;51.280;12.400;2023-08-07T07:15:08;40.97;;;38.78;;
20381;SDS011;10350;51.280;12.400;2023-08-07T07:17:35;41.60;;;39.40;;
20381;SDS011;10350;51.280;12.400;2023-08-07T07:20:01;40.72;;;38.63;;
20381;SDS011;10350;51.280;12.400;2023-08-07T07:22:28;41.88;;;39.75;;
20381;SDS011;10350;51.280;12.400;2023-08-07T07:24:54;45.53;;;43.05;;
20381;SDS011;10350;51.280;12.400;2023-08-07T07:27:20;43.67;;;41.38;;
20381;SDS011;10350;51.280;12.400;2023-08-07T07:29:47;46.40;;;44.00;;
20381;SDS011;10350;51.280;12.400;2023-08-07T07:32:14;47.65;;;45.05;;
20381;SDS011;10350;51.280;12.400;2023-08-07T07:34:40;48.03;;;45.50;;
20381;SDS011;10350;51.280;12.400;2023-08-07T07:37:05;46.40;;;43.97;;
20381;SDS011;10350;51.280;12.400;2023-08-07T07:39:31;48.00;;;45.50;;
20381;SDS011;10350;51.280;12.400;2023-08-07T07:41:57;46.63;;;44.20;;
20381;SDS011;10350;51.280;12.400;2023-08-07T07:44:23;43.75;;;41.47;;
20381;SDS011;10350;51.280;12.400;2023-08-07T07:46:49;42.88;;;40.63;;
20381;SDS011;10350;51.280;12.400;2023-08-07T07:49:15;39.20;;;37.10;;
20381;SDS011;10350;51.280;12.400;2023-08-07T07:51:41;41.70;;;39.47;;
20381;SDS011;10350;51.280;12.400;2023-08-07T07:54:09;38.85;;;36.85;;
20381;SDS011;10350;51.280;12.400;2023-08-07T07:56:35;39.97;;;37.92;;
20381;SDS011;10350;51.280;12.400;2023-08-07T07:59:01;40.45;;;38.35;;
20381;SDS011;10350;51.280;12.400;2023-08-07T08:01:27;39.55;;;37.53;;
20381;SDS011;10350;51.280;12.400;2023-08-07T08:03:53;41.60;;;39.42;;
20381;SDS011;10350;51.280;12.400;2023-08-07T08:06:19;41.35;;;39.05;;
20381;SDS011;10350;51.280;12.400;2023-08-07T08:08:45;45.85;;;43.42;;
20381;SDS011;10350;51.280;12.400;2023-08-07T08:11:11;57.08;;;53.97;;
20381;SDS011;10350;51.280;12.400;2023-08-07T08:13:37;54.13;;;51.33;;
20381;SDS011;10350;51.280;12.400;2023-08-07T08:16:06;47.58;;;45.13;;
20381;SDS011;10350;51.280;12.400;2023-08-07T08:18:31;48.95;;;46.25;;
20381;SDS011;10350;51.280;12.400;2023-08-07T08:20:57;46.28;;;43.88;;
20381;SDS011;10350;51.280;12.400;2023-08-07T08:23:23;49.63;;;46.90;;
20381;SDS011;10350;51.280;12.400;2023-08-07T08:25:49;45.63;;;43.28;;
20381;SDS011;10350;51.280;12.400;2023-08-07T08:28:16;48.63;;;46.03;;
20381;SDS011;10350;51.280;12.400;2023-08-07T08:30:42;49.58;;;46.67;;
20381;SDS011;10350;51.280;12.400;2023-08-07T08:33:08;49.10;;;46.55;;
20381;SDS011;10350;51.280;12.400;2023-08-07T08:35:37;49.92;;;47.33;;
20381;SDS011;10350;51.280;12.400;2023-08-07T08:38:03;51.05;;;48.25;;
20381;SDS011;10350;51.280;12.400;2023-08-07T08:40:30;54.00;;;51.20;;
20381;SDS011;10350;51.280;12.400;2023-08-07T08:42:56;52.70;;;49.60;;
20381;SDS011;10350;51.280;12.400;2023-08-07T08:45:23;55.35;;;52.45;;
20381;SDS011;10350;51.280;12.400;2023-08-07T08:47:51;54.33;;;51.53;;
20381;SDS011;10350;51.280;12.400;2023-08-07T08:50:17;57.35;;;54.25;;
20381;SDS011;10350;51.280;12.400;2023-08-07T08:52:44;55.63;;;52.63;;
20381;SDS011;10350;51.280;12.400;2023-08-07T08:55:10;56.22;;;53.28;;
20381;SDS011;10350;51.280;12.400;2023-08-07T08:57:37;57.33;;;54.33;;
20381;SDS011;10350;51.280;12.400;2023-08-07T09:00:04;58.10;;;55.10;;
20381;SDS011;10350;51.280;12.400;2023-08-07T09:02:32;59.65;;;56.38;;
20381;SDS011;10350;51.280;12.400;2023-08-07T09:04:58;57.60;;;54.60;;
20381;SDS011;10350;51.280;12.400;2023-08-07T09:07:24;55.85;;;52.95;;
20381;SDS011;10350;51.280;12.400;2023-08-07T09:09:51;58.42;;;55.03;;
20381;SDS011;10350;51.280;12.400;2023-08-07T09:12:20;56.97;;;54.00;;
20381;SDS011;10350;51.280;12.400;2023-08-07T09:14:49;55.45;;;52.55;;
20381;SDS011;10350;51.280;12.400;2023-08-07T09:17:16;54.55;;;51.70;;
20381;SDS011;10350;51.280;12.400;2023-08-07T09:19:42;53.65;;;50.85;;
20381;SDS011;10350;51.280;12.400;2023-08-07T09:22:08;54.67;;;51.80;;
20381;SDS011;10350;51.280;12.400;2023-08-07T09:24:35;56.30;;;53.33;;
20381;SDS011;10350;51.280;12.400;2023-08-07T09:27:01;54.08;;;51.28;;
20381;SDS011;10350;51.280;12.400;2023-08-07T09:29:27;54.20;;;51.38;;
20381;SDS011;10350;51.280;12.400;2023-08-07T09:31:54;54.05;;;51.22;;
20381;SDS011;10350;51.280;12.400;2023-08-07T09:34:20;56.88;;;53.92;;
20381;SDS011;10350;51.280;12.400;2023-08-07T09:36:46;56.60;;;53.65;;
20381;SDS011;10350;51.280;12.400;2023-08-07T09:39:12;58.90;;;55.83;;
20381;SDS011;10350;51.280;12.400;2023-08-07T09:41:39;65.60;;;62.20;;
20381;SDS011;10350;51.280;12.400;2023-08-07T09:44:06;61.00;;;57.80;;
20381;SDS011;10350;51.280;12.400;2023-08-07T09:46:40;60.72;;;57.55;;
20381;SDS011;10350;51.280;12.400;2023-08-07T09:49:06;60.63;;;57.35;;
20381;SDS011;10350;51.280;12.400;2023-08-07T09:51:41;62.03;;;58.72;;
20381;SDS011;10350;51.280;12.400;2023-08-07T09:54:08;63.47;;;60.15;;
20381;SDS011;10350;51.280;12.400;2023-08-07T09:56:34;59.08;;;55.97;;
20381;SDS011;10350;51.280;12.400;2023-08-07T09:59:00;59.80;;;56.70;;
20381;SDS011;10350;51.280;12.400;2023-08-07T10:01:26;62.10;;;58.88;;
20381;SDS011;10350;51.280;12.400;2023-08-07T10:03:53;61.05;;;57.83;;
20381;SDS011;10350;51.280;12.400;2023-08-07T10:06:19;60.95;;;57.78;;
20381;SDS011;10350;51.280;12.400;2023-08-07T10:08:45;66.60;;;63.10;;
20381;SDS011;10350;51.280;12.400;2023-08-07T10:11:11;61.70;;;58.42;;
20381;SDS011;10350;51.280;12.400;2023-08-07T10:13:39;61.58;;;58.38;;
20381;SDS011;10350;51.280;12.400;2023-08-07T10:16:05;57.53;;;54.53;;
20381;SDS011;10350;51.280;12.400;2023-08-07T10:18:31;57.72;;;54.70;;
20381;SDS011;10350;51.280;12.400;2023-08-07T10:20:58;62.17;;;58.88;;
20381;SDS011;10350;51.280;12.400;2023-08-07T10:23:26;56.00;;;53.13;;
20381;SDS011;10350;51.280;12.400;2023-08-07T10:25:52;53.58;;;50.80;;
20381;SDS011;10350;51.280;12.400;2023-08-07T10:28:18;57.03;;;54.05;;
20381;SDS011;10350;51.280;12.400;2023-08-07T10:30:45;55.42;;;52.55;;
20381;SDS011;10350;51.280;12.400;2023-08-07T10:33:11;57.15;;;54.20;;
20381;SDS011;10350;51.280;12.400;2023-08-07T10:35:39;57.85;;;54.85;;
20381;SDS011;10350;51.280;12.400;2023-08-07T10:38:09;56.03;;;53.13;;
20381;SDS011;10350;51.280;12.400;2023-08-07T10:43:20;53.40;;;50.65;;
20381;SDS011;10350;51.280;12.400;2023-08-07T10:45:49;56.47;;;53.55;;
20381;SDS011;10350;51.280;12.400;2023-08-07T10:48:17;56.85;;;53.88;;
20381;SDS011;10350;51.280;12.400;2023-08-07T10:51:03;61.38;;;57.58;;
20381;SDS011;10350;51.280;12.400;2023-08-07T10:53:30;56.03;;;53.13;;
20381;SDS011;10350;51.280;12.400;2023-08-07T10:55:56;56.75;;;53.80;;
20381;SDS011;10350;51.280;12.400;2023-08-07T10:58:26;60.63;;;57.47;;
20381;SDS011;10350;51.280;12.400;2023-08-07T11:03:42;60.88;;;57.72;;
20381;SDS011;10350;51.280;12.400;2023-08-07T11:06:11;59.38;;;56.30;;
20381;SDS011;10350;51.280;12.400;2023-08-07T11:08:37;58.63;;;55.60;;
20381;SDS011;10350;51.280;12.400;2023-08-07T11:11:04;58.97;;;55.90;;
20381;SDS011;10350;51.280;12.400;2023-08-07T11:13:30;61.15;;;57.97;;
20381;SDS011;10350;51.280;12.400;2023-08-07T11:15:56;57.67;;;54.65;;
20381;SDS011;10350;51.280;12.400;2023-08-07T11:18:24;60.92;;;57.47;;
20381;SDS011;10350;51.280;12.400;2023-08-07T11:20:50;57.58;;;54.53;;
20381;SDS011;10350;51.280;12.400;2023-08-07T11:23:22;59.90;;;56.75;;
20381;SDS011;10350;51.280;12.400;2023-08-07T11:25:48;61.58;;;58.25;;
20381;SDS011;10350;51.280;12.400;2023-08-07T11:28:14;61.05;;;57.92;;
20381;SDS011;10350;51.280;12.400;2023-08-07T11:30:39;58.85;;;55.83;;
20381;SDS011;10350;51.280;12.400;2023-08-07T11:33:05;60.60;;;57.40;;
20381;SDS011;10350;51.280;12.400;2023-08-07T11:35:31;63.65;;;60.35;;
20381;SDS011;10350;51.280;12.400;2023-08-07T11:37:57;60.20;;;57.08;;
20381;SDS011;10350;51.280;12.400;2023-08-07T11:40:23;57.50;;;54.50;;
20381;SDS011;10350;51.280;12.400;2023-08-07T11:42:49;57.50;;;54.53;;
20381;SDS011;10350;51.280;12.400;2023-08-07T11:45:15;58.88;;;55.80;;
20381;SDS011;10350;51.280;12.400;2023-08-07T11:47:41;57.28;;;54.33;;
20381;SDS011;10350;51.280;12.400;2023-08-07T11:50:07;58.33;;;55.30;;
20381;SDS011;10350;51.280;12.400;2023-08-07T11:52:33;59.45;;;56.35;;
20381;SDS011;10350;51.280;12.400;2023-08-07T11:55:01;65.00;;;61.63;;
20381;SDS011;10350;51.280;12.400;2023-08-07T11:57:29;57.15;;;54.17;;
20381;SDS011;10350;51.280;12.400;2023-08-07T11:59:55;65.30;;;61.55;;
20381;SDS011;10350;51.280;12.400;2023-08-07T12:02:24;64.72;;;61.38;;
20381;SDS011;10350;51.280;12.400;2023-08-07T12:04:50;63.72;;;60.42;;
20381;SDS011;10350;51.280;12.400;2023-08-07T12:07:19;61.28;;;58.08;;
20381;SDS011;10350;51.280;12.400;2023-08-07T12:09:50;63.72;;;60.42;;
20381;SDS011;10350;51.280;12.400;2023-08-07T12:12:18;60.97;;;57.83;;
20381;SDS011;10350;51.280;12.400;2023-08-07T12:14:45;60.42;;;57.30;;
20381;SDS011;10350;51.280;12.400;2023-08-07T12:17:11;60.00;;;56.88;;
20381;SDS011;10350;51.280;12.400;2023-08-07T12:19:37;62.92;;;59.67;;
20381;SDS011;10350;51.280;12.400;2023-08-07T12:22:06;63.50;;;60.20;;
20381;SDS011;10350;51.280;12.400;2023-08-07T12:26:59;53.78;;;50.97;;
20381;SDS011;10350;51.280;12.400;2023-08-07T12:29:25;52.60;;;49.88;;
20381;SDS011;10350;51.280;12.400;2023-08-07T12:31:54;54.85;;;52.05;;
20381;SDS011;10350;51.280;12.400;2023-08-07T12:34:20;54.00;;;51.20;;
20381;SDS011;10350;51.280;12.400;2023-08-07T12:36:46;60.45;;;57.35;;
20381;SDS011;10350;51.280;12.400;2023-08-07T12:39:12;62.20;;;58.70;;
20381;SDS011;10350;51.280;12.400;2023-08-07T12:41:38;59.15;;;56.10;;
20381;SDS011;10350;51.280;12.400;2023-08-07T12:44:04;56.35;;;53.42;;
20381;SDS011;10350;51.280;12.400;2023-08-07T12:46:30;56.33;;;53.40;;
20381;SDS011;10350;51.280;12.400;2023-08-07T12:48:56;54.90;;;52.10;;
20381;SDS011;10350;51.280;12.400;2023-08-07T12:51:22;54.75;;;51.90;;
20381;SDS011;10350;51.280;12.400;2023-08-07T12:53:48;55.95;;;53.05;;
20381;SDS011;10350;51.280;12.400;2023-08-07T12:56:16;54.95;;;51.88;;
20381;SDS011;10350;51.280;12.400;2023-08-07T12:58:42;57.80;;;54.80;;
20381;SDS011;10350;51.280;12.400;2023-08-07T13:01:08;55.72;;;52.83;;
20381;SDS011;10350;51.280;12.400;2023-08-07T13:03:34;59.72;;;56.65;;
20381;SDS011;10350;51.280;12.400;2023-08-07T13:06:00;58.33;;;55.30;;
20381;SDS011;10350;51.280;12.400;2023-08-07T13:08:30;56.95;;;54.00;;
20381;SDS011;10350;51.280;12.400;2023-08-07T13:10:58;61.22;;;58.08;;
20381;SDS011;10350;51.280;12.400;2023-08-07T13:13:24;61.50;;;58.28;;
20381;SDS011;10350;51.280;12.400;2023-08-07T13:15:50;58.90;;;55.85;;
20381;SDS011;10350;51.280;12.400;2023-08-07T13:18:16;62.08;;;58.85;;
20381;SDS011;10350;51.280;12.400;2023-08-07T13:20:42;63.90;;;60.55;;
20381;SDS011;10350;51.280;12.400;2023-08-07T13:23:07;65.38;;;61.97;;
20381;SDS011;10350;51.280;12.400;2023-08-07T13:25:33;61.25;;;58.08;;
20381;SDS011;10350;51.280;12.400;2023-08-07T13:27:59;60.05;;;56.92;;
20381;SDS011;10350;51.280;12.400;2023-08-07T13:30:29;61.50;;;58.22;;
20381;SDS011;10350;51.280;12.400;2023-08-07T13:32:55;61.88;;;58.65;;
20381;SDS011;10350;51.280;12.400;2023-08-07T13:35:21;62.78;;;59.53;;
20381;SDS011;10350;51.280;12.400;2023-08-07T13:37:47;62.05;;;58.85;;
20381;SDS011;10350;51.280;12.400;2023-08-07T13:40:12;57.03;;;54.08;;
20381;SDS011;10350;51.280;12.400;2023-08-07T13:42:39;57.33;;;54.33;;
20381;SDS011;10350;51.280;12.400;2023-08-07T13:45:05;57.55;;;54.55;;
20381;SDS011;10350;51.280;12.400;2023-08-07T13:47:32;58.07;;;55.07;;
20381;SDS011;10350;51.280;12.400;2023-08-07T13:49:58;59.05;;;55.97;;
20381;SDS011;10350;51.280;12.400;2023-08-07T13:52:24;58.20;;;55.17;;
20381;SDS011;10350;51.280;12.400;2023-08-07T13:54:50;61.20;;;58.03;;
20381;SDS011;10350;51.280;12.400;2023-08-07T13:57:16;58.83;;;55.78;;
20381;SDS011;10350;51.280;12.400;2023-08-07T13:59:42;60.92;;;57.70;;
20381;SDS011;10350;51.280;12.400;2023-08-07T14:02:08;58.30;;;55.28;;
20381;SDS011;10350;51.280;12.400;2023-08-07T14:04:34;56.55;;;53.45;;
20381;SDS011;10350;51.280;12.400;2023-08-07T14:07:01;60.22;;;57.13;;
20381;SDS011;10350;51.280;12.400;2023-08-07T14:09:27;57.70;;;54.67;;
20381;SDS011;10350;51.280;12.400;2023-08-07T14:11:53;55.67;;;52.78;;
20381;SDS011;10350;51.280;12.400;2023-08-07T14:14:20;54.83;;;51.90;;
20381;SDS011;10350;51.280;12.400;2023-08-07T14:16:46;58.28;;;55.22;;
20381;SDS011;10350;51.280;12.400;2023-08-07T14:19:13;57.13;;;54.05;;
20381;SDS011;10350;51.280;12.400;2023-08-07T14:21:39;58.55;;;55.50;;
20381;SDS011;10350;51.280;12.400;2023-08-07T14:24:05;56.13;;;53.20;;
20381;SDS011;10350;51.280;12.400;2023-08-07T14:26:31;58.47;;;55.45;;
20381;SDS011;10350;51.280;12.400;2023-08-07T14:28:57;57.15;;;54.20;;
20381;SDS011;10350;51.280;12.400;2023-08-07T14:31:23;57.72;;;54.72;;
20381;SDS011;10350;51.280;12.400;2023-08-07T14:33:50;55.67;;;52.78;;
20381;SDS011;10350;51.280;12.400;2023-08-07T14:36:16;58.53;;;55.47;;
20381;SDS011;10350;51.280;12.400;2023-08-07T14:38:42;55.42;;;52.53;;
20381;SDS011;10350;51.280;12.400;2023-08-07T14:41:08;55.13;;;52.22;;
20381;SDS011;10350;51.280;12.400;2023-08-07T14:43:34;55.33;;;52.47;;
20381;SDS011;10350;51.280;12.400;2023-08-07T14:46:00;53.08;;;50.28;;
20381;SDS011;10350;51.280;12.400;2023-08-07T14:48:26;52.38;;;49.67;;
20381;SDS011;10350;51.280;12.400;2023-08-07T14:50:52;54.53;;;51.72;;
20381;SDS011;10350;51.280;12.400;2023-08-07T14:53:18;56.63;;;53.70;;
20381;SDS011;10350;51.280;12.400;2023-08-07T14:55:44;55.65;;;52.78;;
20381;SDS011;10350;51.280;12.400;2023-08-07T14:58:10;56.28;;;53.38;;
20381;SDS011;10350;51.280;12.400;2023-08-07T15:00:36;54.53;;;51.70;;
20381;SDS011;10350;51.280;12.400;2023-08-07T15:03:02;53.65;;;50.88;;
20381;SDS011;10350;51.280;12.400;2023-08-07T15:05:28;54.03;;;51.25;;
20381;SDS011;10350;51.280;12.400;2023-08-07T15:07:54;59.83;;;56.47;;
20381;SDS011;10350;51.280;12.400;2023-08-07T15:10:20;56.67;;;53.72;;
20381;SDS011;10350;51.280;12.400;2023-08-07T15:12:46;62.47;;;59.10;;
20381;SDS011;10350;51.280;12.400;2023-08-07T15:15:13;61.47;;;58.28;;
20381;SDS011;10350;51.280;12.400;2023-08-07T15:17:42;61.92;;;58.70;;
20381;SDS011;10350;51.280;12.400;2023-08-07T15:20:08;58.42;;;55.40;;
20381;SDS011;10350;51.280;12.400;2023-08-07T15:22:34;59.13;;;56.05;;
20381;SDS011;10350;51.280;12.400;2023-08-07T15:25:00;61.10;;;57.90;;
20381;SDS011;10350;51.280;12.400;2023-08-07T15:27:26;56.53;;;53.40;;
20381;SDS011;10350;51.280;12.400;2023-08-07T15:29:52;56.50;;;53.50;;
20381;SDS011;10350;51.280;12.400;2023-08-07T15:32:18;60.63;;;57.05;;
20381;SDS011;10350;51.280;12.400;2023-08-07T15:34:44;57.65;;;54.65;;
20381;SDS011;10350;51.280;12.400;2023-08-07T15:37:10;56.97;;;54.00;;
20381;SDS011;10350;51.280;12.400;2023-08-07T15:39:36;57.05;;;54.05;;
20381;SDS011;10350;51.280;12.400;2023-08-07T15:42:02;57.60;;;54.63;;
20381;SDS011;10350;51.280;12.400;2023-08-07T15:44:29;57.00;;;54.03;;
20381;SDS011;10350;51.280;12.400;2023-08-07T15:46:55;54.25;;;51.45;;
20381;SDS011;10350;51.280;12.400;2023-08-07T15:49:20;59.58;;;56.47;;
20381;SDS011;10350;51.280;12.400;2023-08-07T15:51:48;55.42;;;52.42;;
20381;SDS011;10350;51.280;12.400;2023-08-07T15:54:14;56.72;;;53.80;;
20381;SDS011;10350;51.280;12.400;2023-08-07T15:56:40;54.70;;;51.80;;
20381;SDS011;10350;51.280;12.400;2023-08-07T15:59:06;55.47;;;52.58;;
20381;SDS011;10350;51.280;12.400;2023-08-07T16:01:31;54.03;;;51.13;;
20381;SDS011;10350;51.280;12.400;2023-08-07T16:03:57;55.35;;;52.38;;
20381;SDS011;10350;51.280;12.400;2023-08-07T16:06:24;56.08;;;53.17;;
20381;SDS011;10350;51.280;12.400;2023-08-07T16:08:50;56.78;;;53.80;;
20381;SDS011;10350;51.280;12.400;2023-08-07T16:11:15;56.72;;;53.80;;
20381;SDS011;10350;51.280;12.400;2023-08-07T16:13:41;60.13;;;56.78;;
20381;SDS011;10350;51.280;12.400;2023-08-07T16:16:07;57.80;;;54.55;;
20381;SDS011;10350;51.280;12.400;2023-08-07T16:18:33;59.03;;;55.83;;
20381;SDS011;10350;51.280;12.400;2023-08-07T16:21:00;57.60;;;54.50;;
20381;SDS011;10350;51.280;12.400;2023-08-07T16:23:26;58.00;;;54.95;;
20381;SDS011;10350;51.280;12.400;2023-08-07T16:25:51;62.17;;;58.92;;
20381;SDS011;10350;51.280;12.400;2023-08-07T16:28:17;58.15;;;55.05;;
20381;SDS011;10350;51.280;12.400;2023-08-07T16:30:44;55.88;;;52.90;;
20381;SDS011;10350;51.280;12.400;2023-08-07T16:33:10;59.92;;;56.53;;
20381;SDS011;10350;51.280;12.400;2023-08-07T16:35:36;57.40;;;53.80;;
20381;SDS011;10350;51.280;12.400;2023-08-07T16:38:02;58.85;;;55.80;;
20381;SDS011;10350;51.280;12.400;2023-08-07T16:40:28;54.95;;;51.95;;
20381;SDS011;10350;51.280;12.400;2023-08-07T16:42:57;56.47;;;53.38;;
20381;SDS011;10350;51.280;12.400;2023-08-07T16:45:23;53.40;;;50.58;;
20381;SDS011;10350;51.280;12.400;2023-08-07T16:47:50;52.88;;;50.08;;
20381;SDS011;10350;51.280;12.400;2023-08-07T16:50:16;47.63;;;44.83;;
20381;SDS011;10350;51.280;12.400;2023-08-07T16:52:42;47.65;;;45.10;;
20381;SDS011;10350;51.280;12.400;2023-08-07T16:55:08;46.22;;;43.80;;
20381;SDS011;10350;51.280;12.400;2023-08-07T16:57:34;47.00;;;44.30;;
20381;SDS011;10350;51.280;12.400;2023-08-07T16:59:59;46.72;;;44.20;;
20381;SDS011;10350;51.280;12.400;2023-08-07T17:02:27;50.90;;;48.00;;
20381;SDS011;10350;51.280;12.400;2023-08-07T17:04:53;49.20;;;46.25;;
20381;SDS011;10350;51.280;12.400;2023-08-07T17:07:19;51.85;;;49.10;;
20381;SDS011;10350;51.280;12.400;2023-08-07T17:09:45;54.72;;;51.85;;
20381;SDS011;10350;51.280;12.400;2023-08-07T17:12:11;53.72;;;50.90;;
20381;SDS011;10350;51.280;12.400;2023-08-07T17:14:37;57.05;;;54.05;;
20381;SDS011;10350;51.280;12.400;2023-08-07T17:17:03;58.33;;;55.30;;
20381;SDS011;10350;51.280;12.400;2023-08-07T17:19:29;59.72;;;56.35;;
20381;SDS011;10350;51.280;12.400;2023-08-07T17:21:55;59.78;;;56.33;;
20381;SDS011;10350;51.280;12.400;2023-08-07T17:24:21;58.33;;;54.75;;
20381;SDS011;10350;51.280;12.400;2023-08-07T17:26:47;63.00;;;59.67;;
20381;SDS011;10350;51.280;12.400;2023-08-07T17:29:13;60.28;;;56.97;;
20381;SDS011;10350;51.280;12.400;2023-08-07T17:31:38;55.28;;;52.28;;
20381;SDS011;10350;51.280;12.400;2023-08-07T17:34:04;54.65;;;51.70;;
20381;SDS011;10350;51.280;12.400;2023-08-07T17:36:30;60.97;;;57.28;;
20381;SDS011;10350;51.280;12.400;2023-08-07T17:38:56;62.50;;;59.20;;
20381;SDS011;10350;51.280;12.400;2023-08-07T17:41:22;58.97;;;55.88;;
20381;SDS011;10350;51.280;12.400;2023-08-07T17:43:48;57.13;;;53.97;;
20381;SDS011;10350;51.280;12.400;2023-08-07T17:46:14;57.78;;;54.72;;
20381;SDS011;10350;51.280;12.400;2023-08-07T17:48:40;56.28;;;53.38;;
20381;SDS011;10350;51.280;12.400;2023-08-07T17:51:09;56.15;;;53.13;;
20381;SDS011;10350;51.280;12.400;2023-08-07T17:53:35;58.35;;;55.35;;
20381;SDS011;10350;51.280;12.400;2023-08-07T17:56:01;54.28;;;51.45;;
20381;SDS011;10350;51.280;12.400;2023-08-07T17:58:27;55.63;;;52.60;;
20381;SDS011;10350;51.280;12.400;2023-08-07T18:00:53;56.72;;;53.58;;
20381;SDS011;10350;51.280;12.400;2023-08-07T18:03:19;51.88;;;49.15;;
20381;SDS011;10350;51.280;12.400;2023-08-07T18:05:45;51.17;;;48.40;;
20381;SDS011;10350;51.280;12.400;2023-08-07T18:08:11;53.65;;;50.70;;
20381;SDS011;10350;51.280;12.400;2023-08-07T18:10:38;51.60;;;48.83;;
20381;SDS011;10350;51.280;12.400;2023-08-07T18:13:04;50.08;;;47.45;;
20381;SDS011;10350;51.280;12.400;2023-08-07T18:15:30;51.10;;;48.47;;
20381;SDS011;10350;51.280;12.400;2023-08-07T18:17:56;50.03;;;47.30;;
20381;SDS011;10350;51.280;12.400;2023-08-07T18:20:22;49.38;;;46.70;;
20381;SDS011;10350;51.280;12.400;2023-08-07T18:22:48;51.58;;;48.63;;
20381;SDS011;10350;51.280;12.400;2023-08-07T18:25:14;48.15;;;45.05;;
20381;SDS011;10350;51.280;12.400;2023-08-07T18:27:40;46.88;;;44.38;;
20381;SDS011;10350;51.280;12.400;2023-08-07T18:30:06;51.10;;;48.42;;
20381;SDS011;10350;51.280;12.400;2023-08-07T18:32:32;48.63;;;46.13;;
20381;SDS011;10350;51.280;12.400;2023-08-07T18:35:00;49.65;;;47.03;;
20381;SDS011;10350;51.280;12.400;2023-08-07T18:37:26;45.65;;;43.00;;
20381;SDS011;10350;51.280;12.400;2023-08-07T18:39:52;48.65;;;46.15;;
20381;SDS011;10350;51.280;12.400;2023-08-07T18:42:18;48.88;;;46.30;;
20381;SDS011;10350;51.280;12.400;2023-08-07T18:44:44;48.10;;;45.20;;
20381;SDS011;10350;51.280;12.400;2023-08-07T18:47:10;49.50;;;46.42;;
20381;SDS011;10350;51.280;12.400;2023-08-07T18:49:36;43.38;;;41.13;;
20381;SDS011;10350;51.280;12.400;2023-08-07T18:52:02;49.33;;;46.67;;
20381;SDS011;10350;51.280;12.400;2023-08-07T18:54:29;44.70;;;42.28;;